sensor_id;sensor_type;location;lat;lon;timestamp;P1;durP1;ratioP1;P2;durP2;ratioP2
67344;SDS011;54230;52.402;6.276;2023-06-05T00:00:00;8.7;;;4.7;;
67344;SDS011;54230;52.402;6.276;2023-06-05T00:05:00;12.0;;;4.9;;
67344;SDS011;54230;52.402;6.276;2023-06-05T00:10:00;9.1;;;4.9;;
67344;SDS011;54230;52.402;6.276;2023-06-05T00:15:00;10.6;;;4.9;;
67344;SDS011;54230;52.402;6.276;2023-06-05T00:20:00;10.3;;;4.8;;
67344;SDS011;54230;52.402;6.276;2023-06-05T00:25:00;8.8;;;4.8;;
67344;SDS011;54230;52.402;6.276;2023-06-05T00:30:00;10.5;;;4.9;;
67344;SDS011;54230;52.402;6.276;2023-06-05T00:35:00;9.6;;;5.1;;
67344;SDS011;54230;52.402;6.276;2023-06-05T00:40:00;11.2;;;5.1;;
67344;SDS011;54230;52.402;6.276;2023-06-05T00:45:00;9.3;;;5.0;;
67344;SDS011;54230;52.402;6.276;2023-06-05T00:50:00;11.0;;;5.3;;
67344;SDS011;54230;52.402;6.276;2023-06-05T00:55:00;11.3;;;5.0;;
67344;SDS011;54230;52.402;6.276;2023-06-05T01:00:00;11.1;;;5.1;;
67344;SDS011;54230;52.402;6.276;2023-06-05T01:05:00;10.9;;;5.3;;
67344;SDS011;54230;52.402;6.276;2023-06-05T01:10:00;11.5;;;5.5;;
67344;SDS011;54230;52.402;6.276;2023-06-05T01:15:01;9.7;;;5.3;;
67344;SDS011;54230;52.402;6.276;2023-06-05T01:20:00;10.4;;;5.2;;
67344;SDS011;54230;52.402;6.276;2023-06-05T01:25:00;10.5;;;5.5;;
67344;SDS011;54230;52.402;6.276;2023-06-05T01:30:01;10.9;;;5.4;;
67344;SDS011;54230;52.402;6.276;2023-06-05T01:35:00;10.1;;;5.4;;
67344;SDS011;54230;52.402;6.276;2023-06-05T01:40:00;10.4;;;5.9;;
67344;SDS011;54230;52.402;6.276;2023-06-05T01:45:00;11.6;;;5.5;;
67344;SDS011;54230;52.402;6.276;2023-06-05T01:50:00;11.3;;;5.5;;
67344;SDS011;54230;52.402;6.276;2023-06-05T01:55:00;11.5;;;5.8;;
67344;SDS011;54230;52.402;6.276;2023-06-05T02:00:00;10.1;;;5.6;;
67344;SDS011;54230;52.402;6.276;2023-06-05T02:05:00;12.0;;;5.6;;
67344;SDS011;54230;52.402;6.276;2023-06-05T02:10:00;12.1;;;6.4;;
67344;SDS011;54230;52.402;6.276;2023-06-05T02:15:00;12.9;;;6.1;;
67344;SDS011;54230;52.402;6.276;2023-06-05T02:20:00;15.7;;;6.3;;
67344;SDS011;54230;52.402;6.276;2023-06-05T02:25:00;13.9;;;5.9;;
67344;SDS011;54230;52.402;6.276;2023-06-05T02:30:00;13.7;;;5.7;;
67344;SDS011;54230;52.402;6.276;2023-06-05T02:35:00;14.3;;;6.7;;
67344;SDS011;54230;52.402;6.276;2023-06-05T02:40:00;13.2;;;6.5;;
67344;SDS011;54230;52.402;6.276;2023-06-05T02:45:00;11.8;;;6.0;;
67344;SDS011;54230;52.402;6.276;2023-06-05T02:50:00;13.2;;;6.6;;
67344;SDS011;54230;52.402;6.276;2023-06-05T02:55:00;14.7;;;6.8;;
67344;SDS011;54230;52.402;6.276;2023-06-05T03:00:00;13.8;;;6.9;;
67344;SDS011;54230;52.402;6.276;2023-06-05T03:05:00;11.9;;;7.0;;
67344;SDS011;54230;52.402;6.276;2023-06-05T03:10:00;12.2;;;6.3;;
67344;SDS011;54230;52.402;6.276;2023-06-05T03:15:00;12.8;;;6.6;;
67344;SDS011;54230;52.402;6.276;2023-06-05T03:20:00;13.4;;;6.7;;
67344;SDS011;54230;52.402;6.276;2023-06-05T03:25:00;13.7;;;6.8;;
67344;SDS011;54230;52.402;6.276;2023-06-05T03:30:00;15.0;;;7.1;;
67344;SDS011;54230;52.402;6.276;2023-06-05T03:35:00;13.6;;;7.1;;
67344;SDS011;54230;52.402;6.276;2023-06-05T03:40:00;15.3;;;7.0;;
67344;SDS011;54230;52.402;6.276;2023-06-05T03:45:00;14.9;;;6.9;;
67344;SDS011;54230;52.402;6.276;2023-06-05T03:50:00;17.4;;;7.5;;
67344;SDS011;54230;52.402;6.276;2023-06-05T03:55:00;14.4;;;7.2;;
67344;SDS011;54230;52.402;6.276;2023-06-05T04:00:00;15.7;;;7.0;;
67344;SDS011;54230;52.402;6.276;2023-06-05T04:05:00;15.3;;;6.9;;
67344;SDS011;54230;52.402;6.276;2023-06-05T04:10:00;14.6;;;7.1;;
67344;SDS011;54230;52.402;6.276;2023-06-05T04:15:00;15.8;;;7.6;;
67344;SDS011;54230;52.402;6.276;2023-06-05T04:20:00;14.2;;;7.1;;
67344;SDS011;54230;52.402;6.276;2023-06-05T04:25:00;14.3;;;6.9;;
67344;SDS011;54230;52.402;6.276;2023-06-05T04:30:00;14.9;;;7.0;;
67344;SDS011;54230;52.402;6.276;2023-06-05T04:35:00;14.5;;;7.0;;
67344;SDS011;54230;52.402;6.276;2023-06-05T04:40:00;15.2;;;7.5;;
67344;SDS011;54230;52.402;6.276;2023-06-05T04:45:01;14.5;;;6.8;;
67344;SDS011;54230;52.402;6.276;2023-06-05T04:50:01;13.8;;;7.2;;
67344;SDS011;54230;52.402;6.276;2023-06-05T04:55:00;14.5;;;6.7;;
67344;SDS011;54230;52.402;6.276;2023-06-05T05:00:00;13.0;;;6.7;;
67344;SDS011;54230;52.402;6.276;2023-06-05T05:05:00;13.2;;;6.6;;
67344;SDS011;54230;52.402;6.276;2023-06-05T05:10:00;13.3;;;7.0;;
67344;SDS011;54230;52.402;6.276;2023-06-05T05:15:01;15.3;;;7.3;;
67344;SDS011;54230;52.402;6.276;2023-06-05T05:20:00;11.6;;;6.9;;
67344;SDS011;54230;52.402;6.276;2023-06-05T05:25:00;14.2;;;7.1;;
67344;SDS011;54230;52.402;6.276;2023-06-05T05:30:00;14.1;;;7.1;;
67344;SDS011;54230;52.402;6.276;2023-06-05T05:35:00;13.6;;;7.4;;
67344;SDS011;54230;52.402;6.276;2023-06-05T05:40:00;14.5;;;7.2;;
67344;SDS011;54230;52.402;6.276;2023-06-05T05:45:00;15.2;;;7.2;;
67344;SDS011;54230;52.402;6.276;2023-06-05T05:50:00;16.7;;;7.4;;
67344;SDS011;54230;52.402;6.276;2023-06-05T05:55:00;14.3;;;7.3;;
67344;SDS011;54230;52.402;6.276;2023-06-05T06:00:00;12.5;;;7.0;;
67344;SDS011;54230;52.402;6.276;2023-06-05T06:05:00;13.8;;;7.1;;
67344;SDS011;54230;52.402;6.276;2023-06-05T06:10:00;14.5;;;6.5;;
67344;SDS011;54230;52.402;6.276;2023-06-05T06:15:00;13.0;;;6.4;;
67344;SDS011;54230;52.402;6.276;2023-06-05T06:20:00;14.3;;;6.7;;
67344;SDS011;54230;52.402;6.276;2023-06-05T06:25:00;13.1;;;6.8;;
67344;SDS011;54230;52.402;6.276;2023-06-05T06:30:00;12.6;;;7.1;;
67344;SDS011;54230;52.402;6.276;2023-06-05T06:35:00;13.3;;;6.7;;
67344;SDS011;54230;52.402;6.276;2023-06-05T06:40:00;13.9;;;7.0;;
67344;SDS011;54230;52.402;6.276;2023-06-05T06:45:00;15.8;;;7.0;;
67344;SDS011;54230;52.402;6.276;2023-06-05T06:50:00;13.3;;;7.2;;
67344;SDS011;54230;52.402;6.276;2023-06-05T06:55:00;13.8;;;6.7;;
67344;SDS011;54230;52.402;6.276;2023-06-05T07:00:00;13.3;;;6.7;;
67344;SDS011;54230;52.402;6.276;2023-06-05T07:05:00;12.9;;;6.4;;
67344;SDS011;54230;52.402;6.276;2023-06-05T07:10:00;12.4;;;6.5;;
67344;SDS011;54230;52.402;6.276;2023-06-05T07:15:00;12.5;;;6.1;;
67344;SDS011;54230;52.402;6.276;2023-06-05T07:20:00;13.1;;;6.5;;
67344;SDS011;54230;52.402;6.276;2023-06-05T07:25:00;13.0;;;6.3;;
67344;SDS011;54230;52.402;6.276;2023-06-05T07:30:00;11.8;;;6.0;;
67344;SDS011;54230;52.402;6.276;2023-06-05T07:35:00;11.7;;;5.8;;
67344;SDS011;54230;52.402;6.276;2023-06-05T07:40:00;11.0;;;6.0;;
67344;SDS011;54230;52.402;6.276;2023-06-05T07:45:00;9.6;;;5.6;;
67344;SDS011;54230;52.402;6.276;2023-06-05T07:50:01;12.6;;;5.9;;
67344;SDS011;54230;52.402;6.276;2023-06-05T07:55:00;12.8;;;5.6;;
67344;SDS011;54230;52.402;6.276;2023-06-05T08:00:00;11.1;;;5.3;;
67344;SDS011;54230;52.402;6.276;2023-06-05T08:05:00;20.5;;;6.8;;
67344;SDS011;54230;52.402;6.276;2023-06-05T08:10:00;12.2;;;6.2;;
67344;SDS011;54230;52.402;6.276;2023-06-05T08:15:00;10.2;;;5.5;;
67344;SDS011;54230;52.402;6.276;2023-06-05T08:20:00;10.4;;;6.0;;
67344;SDS011;54230;52.402;6.276;2023-06-05T08:25:00;10.6;;;5.6;;
67344;SDS011;54230;52.402;6.276;2023-06-05T08:30:00;10.6;;;5.3;;
67344;SDS011;54230;52.402;6.276;2023-06-05T08:35:00;10.2;;;5.3;;
67344;SDS011;54230;52.402;6.276;2023-06-05T08:40:00;12.2;;;5.7;;
67344;SDS011;54230;52.402;6.276;2023-06-05T08:45:00;10.5;;;5.4;;
67344;SDS011;54230;52.402;6.276;2023-06-05T08:50:01;10.7;;;5.7;;
67344;SDS011;54230;52.402;6.276;2023-06-05T08:55:00;14.5;;;5.6;;
67344;SDS011;54230;52.402;6.276;2023-06-05T09:00:01;10.1;;;5.8;;
67344;SDS011;54230;52.402;6.276;2023-06-05T09:05:00;10.6;;;5.9;;
67344;SDS011;54230;52.402;6.276;2023-06-05T09:10:00;11.4;;;5.5;;
67344;SDS011;54230;52.402;6.276;2023-06-05T09:15:03;10.6;;;5.3;;
67344;SDS011;54230;52.402;6.276;2023-06-05T09:20:00;12.4;;;5.6;;
67344;SDS011;54230;52.402;6.276;2023-06-05T09:25:00;12.0;;;5.7;;
67344;SDS011;54230;52.402;6.276;2023-06-05T09:30:01;10.5;;;5.4;;
67344;SDS011;54230;52.402;6.276;2023-06-05T09:35:00;9.9;;;5.3;;
67344;SDS011;54230;52.402;6.276;2023-06-05T09:40:00;10.3;;;5.4;;
67344;SDS011;54230;52.402;6.276;2023-06-05T09:45:00;9.8;;;5.4;;
67344;SDS011;54230;52.402;6.276;2023-06-05T09:50:00;10.4;;;5.3;;
67344;SDS011;54230;52.402;6.276;2023-06-05T09:55:00;9.2;;;5.2;;
67344;SDS011;54230;52.402;6.276;2023-06-05T10:00:02;10.1;;;6.0;;
67344;SDS011;54230;52.402;6.276;2023-06-05T10:05:01;10.2;;;5.7;;
67344;SDS011;54230;52.402;6.276;2023-06-05T10:10:00;10.2;;;5.1;;
67344;SDS011;54230;52.402;6.276;2023-06-05T10:15:00;10.8;;;5.7;;
67344;SDS011;54230;52.402;6.276;2023-06-05T10:20:00;12.1;;;5.6;;
67344;SDS011;54230;52.402;6.276;2023-06-05T10:25:00;12.3;;;5.8;;
67344;SDS011;54230;52.402;6.276;2023-06-05T10:30:06;11.1;;;5.3;;
67344;SDS011;54230;52.402;6.276;2023-06-05T10:35:02;10.6;;;5.7;;
67344;SDS011;54230;52.402;6.276;2023-06-05T10:40:00;10.9;;;5.3;;
67344;SDS011;54230;52.402;6.276;2023-06-05T10:45:00;9.8;;;5.0;;
67344;SDS011;54230;52.402;6.276;2023-06-05T10:55:00;7.8;;;4.8;;
67344;SDS011;54230;52.402;6.276;2023-06-05T11:00:07;8.8;;;4.7;;
67344;SDS011;54230;52.402;6.276;2023-06-05T11:05:04;8.9;;;4.8;;
67344;SDS011;54230;52.402;6.276;2023-06-05T11:10:04;8.5;;;4.7;;
67344;SDS011;54230;52.402;6.276;2023-06-05T11:15:00;8.7;;;4.6;;
67344;SDS011;54230;52.402;6.276;2023-06-05T11:20:01;10.3;;;4.5;;
67344;SDS011;54230;52.402;6.276;2023-06-05T11:30:00;9.7;;;4.1;;
67344;SDS011;54230;52.402;6.276;2023-06-05T11:35:00;9.7;;;4.2;;
67344;SDS011;54230;52.402;6.276;2023-06-05T11:40:00;8.0;;;4.3;;
67344;SDS011;54230;52.402;6.276;2023-06-05T11:45:01;9.1;;;4.4;;
67344;SDS011;54230;52.402;6.276;2023-06-05T11:50:07;7.7;;;4.2;;
67344;SDS011;54230;52.402;6.276;2023-06-05T11:55:10;7.9;;;4.2;;
67344;SDS011;54230;52.402;6.276;2023-06-05T12:00:00;8.0;;;3.7;;
67344;SDS011;54230;52.402;6.276;2023-06-05T12:05:00;8.2;;;4.3;;
67344;SDS011;54230;52.402;6.276;2023-06-05T12:10:00;8.5;;;4.0;;
67344;SDS011;54230;52.402;6.276;2023-06-05T12:20:00;10.0;;;4.1;;
67344;SDS011;54230;52.402;6.276;2023-06-05T12:30:00;9.5;;;3.6;;
67344;SDS011;54230;52.402;6.276;2023-06-05T12:35:00;8.5;;;3.9;;
67344;SDS011;54230;52.402;6.276;2023-06-05T12:40:00;7.5;;;3.5;;
67344;SDS011;54230;52.402;6.276;2023-06-05T12:45:00;9.0;;;4.1;;
67344;SDS011;54230;52.402;6.276;2023-06-05T12:50:00;8.0;;;3.6;;
67344;SDS011;54230;52.402;6.276;2023-06-05T12:55:00;8.1;;;3.7;;
67344;SDS011;54230;52.402;6.276;2023-06-05T13:00:02;9.2;;;4.0;;
67344;SDS011;54230;52.402;6.276;2023-06-05T13:05:00;6.0;;;3.4;;
67344;SDS011;54230;52.402;6.276;2023-06-05T13:10:00;5.8;;;3.5;;
67344;SDS011;54230;52.402;6.276;2023-06-05T13:15:00;6.4;;;3.0;;
67344;SDS011;54230;52.402;6.276;2023-06-05T13:20:00;7.2;;;4.0;;
67344;SDS011;54230;52.402;6.276;2023-06-05T13:25:00;6.5;;;3.0;;
67344;SDS011;54230;52.402;6.276;2023-06-05T13:30:00;5.5;;;3.1;;
67344;SDS011;54230;52.402;6.276;2023-06-05T13:35:00;7.2;;;3.1;;
67344;SDS011;54230;52.402;6.276;2023-06-05T13:40:00;6.7;;;3.1;;
67344;SDS011;54230;52.402;6.276;2023-06-05T13:45:00;7.0;;;3.5;;
67344;SDS011;54230;52.402;6.276;2023-06-05T13:50:00;6.3;;;3.6;;
67344;SDS011;54230;52.402;6.276;2023-06-05T13:55:00;6.0;;;3.2;;
67344;SDS011;54230;52.402;6.276;2023-06-05T14:00:00;6.3;;;2.9;;
67344;SDS011;54230;52.402;6.276;2023-06-05T14:05:00;6.0;;;3.3;;
67344;SDS011;54230;52.402;6.276;2023-06-05T14:10:00;7.5;;;2.8;;
67344;SDS011;54230;52.402;6.276;2023-06-05T14:15:00;7.1;;;2.9;;
67344;SDS011;54230;52.402;6.276;2023-06-05T14:20:00;5.9;;;2.9;;
67344;SDS011;54230;52.402;6.276;2023-06-05T14:25:00;5.9;;;3.0;;
67344;SDS011;54230;52.402;6.276;2023-06-05T14:30:00;7.4;;;3.0;;
67344;SDS011;54230;52.402;6.276;2023-06-05T14:35:00;6.8;;;2.9;;
67344;SDS011;54230;52.402;6.276;2023-06-05T14:40:00;6.8;;;3.0;;
67344;SDS011;54230;52.402;6.276;2023-06-05T14:45:00;4.7;;;3.1;;
67344;SDS011;54230;52.402;6.276;2023-06-05T14:50:00;6.7;;;3.1;;
67344;SDS011;54230;52.402;6.276;2023-06-05T14:55:00;6.4;;;3.0;;
67344;SDS011;54230;52.402;6.276;2023-06-05T15:00:00;4.9;;;2.8;;
67344;SDS011;54230;52.402;6.276;2023-06-05T15:05:00;5.5;;;2.8;;
67344;SDS011;54230;52.402;6.276;2023-06-05T15:10:00;5.9;;;2.8;;
67344;SDS011;54230;52.402;6.276;2023-06-05T15:15:00;7.5;;;2.7;;
67344;SDS011;54230;52.402;6.276;2023-06-05T15:20:00;5.2;;;2.7;;
67344;SDS011;54230;52.402;6.276;2023-06-05T15:25:00;5.8;;;2.5;;
67344;SDS011;54230;52.402;6.276;2023-06-05T15:30:00;6.1;;;2.8;;
67344;SDS011;54230;52.402;6.276;2023-06-05T15:35:00;5.1;;;2.9;;
67344;SDS011;54230;52.402;6.276;2023-06-05T15:40:00;5.7;;;2.9;;
67344;SDS011;54230;52.402;6.276;2023-06-05T15:45:08;5.2;;;2.8;;
67344;SDS011;54230;52.402;6.276;2023-06-05T15:50:00;6.7;;;3.1;;
67344;SDS011;54230;52.402;6.276;2023-06-05T15:55:00;5.0;;;2.9;;
67344;SDS011;54230;52.402;6.276;2023-06-05T16:00:00;8.3;;;2.9;;
67344;SDS011;54230;52.402;6.276;2023-06-05T16:05:00;8.3;;;3.3;;
67344;SDS011;54230;52.402;6.276;2023-06-05T16:10:00;5.3;;;2.9;;
67344;SDS011;54230;52.402;6.276;2023-06-05T16:15:00;4.9;;;2.5;;
67344;SDS011;54230;52.402;6.276;2023-06-05T16:20:00;5.7;;;2.9;;
67344;SDS011;54230;52.402;6.276;2023-06-05T16:25:00;6.1;;;3.0;;
67344;SDS011;54230;52.402;6.276;2023-06-05T16:30:00;9.2;;;3.3;;
67344;SDS011;54230;52.402;6.276;2023-06-05T16:35:00;7.5;;;3.1;;
67344;SDS011;54230;52.402;6.276;2023-06-05T16:40:00;7.0;;;2.7;;
67344;SDS011;54230;52.402;6.276;2023-06-05T16:45:00;7.3;;;3.3;;
67344;SDS011;54230;52.402;6.276;2023-06-05T16:50:00;6.3;;;3.2;;
67344;SDS011;54230;52.402;6.276;2023-06-05T16:55:00;6.5;;;3.2;;
67344;SDS011;54230;52.402;6.276;2023-06-05T17:00:00;5.7;;;3.1;;
67344;SDS011;54230;52.402;6.276;2023-06-05T17:05:00;5.5;;;3.1;;
67344;SDS011;54230;52.402;6.276;2023-06-05T17:10:00;5.6;;;3.0;;
67344;SDS011;54230;52.402;6.276;2023-06-05T17:15:00;5.6;;;3.0;;
67344;SDS011;54230;52.402;6.276;2023-06-05T17:20:00;5.9;;;3.1;;
67344;SDS011;54230;52.402;6.276;2023-06-05T17:25:00;6.3;;;3.2;;
67344;SDS011;54230;52.402;6.276;2023-06-05T17:30:00;6.2;;;3.2;;
67344;SDS011;54230;52.402;6.276;2023-06-05T17:35:00;8.7;;;3.0;;
67344;SDS011;54230;52.402;6.276;2023-06-05T17:40:00;6.2;;;3.2;;
67344;SDS011;54230;52.402;6.276;2023-06-05T17:45:00;6.4;;;3.4;;
67344;SDS011;54230;52.402;6.276;2023-06-05T17:50:00;7.7;;;3.4;;
67344;SDS011;54230;52.402;6.276;2023-06-05T17:55:00;6.8;;;3.5;;
67344;SDS011;54230;52.402;6.276;2023-06-05T18:00:00;7.0;;;3.5;;
67344;SDS011;54230;52.402;6.276;2023-06-05T18:05:00;10.3;;;4.0;;
67344;SDS011;54230;52.402;6.276;2023-06-05T18:10:00;9.2;;;3.9;;
67344;SDS011;54230;52.402;6.276;2023-06-05T18:15:00;8.5;;;4.1;;
67344;SDS011;54230;52.402;6.276;2023-06-05T18:20:00;8.7;;;4.2;;
67344;SDS011;54230;52.402;6.276;2023-06-05T18:25:00;9.9;;;3.6;;
67344;SDS011;54230;52.402;6.276;2023-06-05T18:30:00;8.3;;;3.8;;
67344;SDS011;54230;52.402;6.276;2023-06-05T18:35:00;7.3;;;3.6;;
67344;SDS011;54230;52.402;6.276;2023-06-05T18:40:00;8.0;;;3.9;;
67344;SDS011;54230;52.402;6.276;2023-06-05T18:45:00;7.6;;;3.8;;
67344;SDS011;54230;52.402;6.276;2023-06-05T18:50:00;7.6;;;3.9;;
67344;SDS011;54230;52.402;6.276;2023-06-05T18:55:00;8.2;;;4.1;;
67344;SDS011;54230;52.402;6.276;2023-06-05T19:00:00;9.6;;;4.0;;
67344;SDS011;54230;52.402;6.276;2023-06-05T19:05:00;8.8;;;3.8;;
67344;SDS011;54230;52.402;6.276;2023-06-05T19:10:01;8.1;;;4.1;;
67344;SDS011;54230;52.402;6.276;2023-06-05T19:15:00;10.3;;;4.2;;
67344;SDS011;54230;52.402;6.276;2023-06-05T19:20:00;9.2;;;4.7;;
67344;SDS011;54230;52.402;6.276;2023-06-05T19:25:00;9.4;;;4.7;;
67344;SDS011;54230;52.402;6.276;2023-06-05T19:30:00;7.1;;;4.1;;
67344;SDS011;54230;52.402;6.276;2023-06-05T19:35:00;7.8;;;4.5;;
67344;SDS011;54230;52.402;6.276;2023-06-05T19:40:00;10.8;;;4.7;;
67344;SDS011;54230;52.402;6.276;2023-06-05T19:45:00;10.0;;;4.5;;
67344;SDS011;54230;52.402;6.276;2023-06-05T19:50:00;8.6;;;4.3;;
67344;SDS011;54230;52.402;6.276;2023-06-05T19:55:00;8.9;;;4.7;;
67344;SDS011;54230;52.402;6.276;2023-06-05T20:00:00;10.9;;;4.6;;
67344;SDS011;54230;52.402;6.276;2023-06-05T20:05:00;10.2;;;5.0;;
67344;SDS011;54230;52.402;6.276;2023-06-05T20:10:00;9.2;;;4.9;;
67344;SDS011;54230;52.402;6.276;2023-06-05T20:15:00;9.8;;;4.9;;
67344;SDS011;54230;52.402;6.276;2023-06-05T20:20:00;9.8;;;4.8;;
67344;SDS011;54230;52.402;6.276;2023-06-05T20:25:00;10.6;;;5.3;;
67344;SDS011;54230;52.402;6.276;2023-06-05T20:30:00;8.7;;;4.6;;
67344;SDS011;54230;52.402;6.276;2023-06-05T20:35:00;10.1;;;4.7;;
67344;SDS011;54230;52.402;6.276;2023-06-05T20:40:00;9.9;;;5.2;;
67344;SDS011;54230;52.402;6.276;2023-06-05T20:45:00;10.4;;;5.1;;
67344;SDS011;54230;52.402;6.276;2023-06-05T20:50:00;10.2;;;5.2;;
67344;SDS011;54230;52.402;6.276;2023-06-05T20:55:00;8.8;;;4.9;;
67344;SDS011;54230;52.402;6.276;2023-06-05T21:00:00;12.9;;;5.0;;
67344;SDS011;54230;52.402;6.276;2023-06-05T21:05:00;10.0;;;4.8;;
67344;SDS011;54230;52.402;6.276;2023-06-05T21:10:00;9.8;;;5.1;;
67344;SDS011;54230;52.402;6.276;2023-06-05T21:15:00;10.3;;;4.7;;
67344;SDS011;54230;52.402;6.276;2023-06-05T21:20:01;9.0;;;4.8;;
67344;SDS011;54230;52.402;6.276;2023-06-05T21:25:00;10.7;;;5.1;;
67344;SDS011;54230;52.402;6.276;2023-06-05T21:30:00;8.6;;;5.0;;
67344;SDS011;54230;52.402;6.276;2023-06-05T21:35:00;11.1;;;5.2;;
67344;SDS011;54230;52.402;6.276;2023-06-05T21:40:00;10.8;;;5.2;;
67344;SDS011;54230;52.402;6.276;2023-06-05T21:45:00;10.1;;;5.4;;
67344;SDS011;54230;52.402;6.276;2023-06-05T21:50:00;13.3;;;5.6;;
67344;SDS011;54230;52.402;6.276;2023-06-05T21:55:00;12.9;;;5.4;;
67344;SDS011;54230;52.402;6.276;2023-06-05T22:00:00;11.1;;;5.5;;
67344;SDS011;54230;52.402;6.276;2023-06-05T22:05:00;11.0;;;5.3;;
67344;SDS011;54230;52.402;6.276;2023-06-05T22:10:00;11.3;;;5.6;;
67344;SDS011;54230;52.402;6.276;2023-06-05T22:15:00;11.3;;;5.7;;
67344;SDS011;54230;52.402;6.276;2023-06-05T22:20:00;11.4;;;5.3;;
67344;SDS011;54230;52.402;6.276;2023-06-05T22:25:00;13.2;;;5.6;;
67344;SDS011;54230;52.402;6.276;2023-06-05T22:30:00;10.5;;;5.5;;
67344;SDS011;54230;52.402;6.276;2023-06-05T22:35:00;10.2;;;5.2;;
67344;SDS011;54230;52.402;6.276;2023-06-05T22:40:00;10.9;;;5.4;;
67344;SDS011;54230;52.402;6.276;2023-06-05T22:45:00;10.6;;;5.1;;
67344;SDS011;54230;52.402;6.276;2023-06-05T22:50:00;10.2;;;5.0;;
67344;SDS011;54230;52.402;6.276;2023-06-05T22:55:00;9.9;;;5.0;;
67344;SDS011;54230;52.402;6.276;2023-06-05T23:00:00;12.9;;;5.4;;
67344;SDS011;54230;52.402;6.276;2023-06-05T23:05:00;10.4;;;5.5;;
67344;SDS011;54230;52.402;6.276;2023-06-05T23:10:00;11.8;;;5.4;;
67344;SDS011;54230;52.402;6.276;2023-06-05T23:15:00;11.4;;;5.3;;
67344;SDS011;54230;52.402;6.276;2023-06-05T23:20:00;13.1;;;5.4;;
67344;SDS011;54230;52.402;6.276;2023-06-05T23:25:00;13.5;;;5.8;;
67344;SDS011;54230;52.402;6.276;2023-06-05T23:30:00;11.5;;;5.6;;
67344;SDS011;54230;52.402;6.276;2023-06-05T23:35:00;12.9;;;5.7;;
67344;SDS011;54230;52.402;6.276;2023-06-05T23:40:00;11.8;;;5.7;;
67344;SDS011;54230;52.402;6.276;2023-06-05T23:45:00;11.1;;;5.8;;
67344;SDS011;54230;52.402;6.276;2023-06-05T23:50:00;13.6;;;5.8;;
67344;SDS011;54230;52.402;6.276;2023-06-05T23:55:00;12.2;;;5.9;;
